Time;durP1;ratioP1;P1;durP2;ratioP2;P2;SDS_P1;SDS_P2;PMS_P1;PMS_P2;Temp;Humidity;BMP_temperature;BMP_pressure;BME280_temperature;BME280_humidity;BME280_pressure;Samples;Min_cycle;Max_cycle;Signal;HPM_P1;HPM_P2
2022/01/28 00:01:08;;;;;;;;;;;26.40;99.90;;;;;;5074546;28;19919;-72
2022/01/28 00:03:36;;;;;;;;;;;26.50;99.90;;;;;;5074437;28;19908;-74
2022/01/28 00:06:04;;;;;;;;;;;26.50;99.90;;;;;;5074374;28;19915;-72
2022/01/28 00:08:30;;;;;;;;;;;26.40;99.90;;;;;;5073932;28;19909;-73
2022/01/28 00:10:57;;;;;;;;;;;26.50;99.90;;;;;;5074251;28;19917;-73
2022/01/28 00:13:36;;;;;;;;;;;26.50;99.90;;;;;;5074308;28;19908;-72
2022/01/28 00:19:05;;;;;;;;;;;26.80;99.90;;;;;;5073995;28;19915;-72
2022/01/28 00:38:11;;;;;;;;;;;27.00;99.90;;;;;;5011272;28;19920;-72
2022/01/28 00:40:37;;;;;;;;;;;27.10;99.90;;;;;;5050515;28;20053;-72
2022/01/28 00:43:05;;;;;;;;;;;27.00;99.90;;;;;;5073589;28;19920;-71
2022/01/28 00:45:32;;;;;;;;;;;26.90;99.90;;;;;;5073723;28;19913;-71
2022/01/28 00:47:59;;;;;;;;;;;27.20;99.90;;;;;;5071911;28;19909;-71
2022/01/28 00:50:25;;;;;;;;;;;27.00;99.90;;;;;;5073267;28;19908;-71
2022/01/28 00:52:52;;;;;;;;;;;26.90;99.90;;;;;;5073458;28;19954;-73
2022/01/28 00:55:19;;;;;;;;;;;27.20;99.90;;;;;;5073609;28;19909;-71
2022/01/28 00:57:45;;;;;;;;;;;27.30;99.90;;;;;;5073035;28;19909;-72
2022/01/28 01:00:12;;;;;;;;;;;27.60;99.90;;;;;;5073670;28;19908;-73
2022/01/28 01:02:39;;;;;;;;;;;27.80;99.90;;;;;;5073340;28;19923;-71
2022/01/28 01:05:06;;;;;;;;;;;28.00;99.90;;;;;;5071824;28;19908;-72
2022/01/28 01:07:33;;;;;;;;;;;28.50;99.90;;;;;;5070652;28;19951;-71
2022/01/28 01:10:00;;;;;;;;;;;28.60;99.90;;;;;;5071495;28;19909;-71
2022/01/28 01:12:29;;;;;;;;;;;28.90;99.90;;;;;;5071605;28;20259;-71
2022/01/28 01:14:55;;;;;;;;;;;29.00;99.90;;;;;;5071156;28;19995;-71
2022/01/28 01:17:34;;;;;;;;;;;29.10;99.90;;;;;;5071156;28;19920;-73
2022/01/28 01:23:06;;;;;;;;;;;29.40;99.90;;;;;;5064039;28;20325;-71
2022/01/28 01:25:42;;;;;;;;;;;29.70;99.90;;;;;;5072837;28;19916;-71
2022/01/28 01:28:11;;;;;;;;;;;29.10;99.90;;;;;;5072341;28;19908;-71
2022/01/28 01:30:40;;;;;;;;;;;29.20;99.90;;;;;;5072781;28;20244;-70
2022/01/28 01:33:08;;;;;;;;;;;29.30;99.90;;;;;;5072736;28;19916;-71
2022/01/28 01:35:35;;;;;;;;;;;29.40;99.90;;;;;;5071290;28;19909;-71
2022/01/28 01:38:02;;;;;;;;;;;29.30;99.90;;;;;;5071604;28;19908;-71
2022/01/28 01:40:35;;;;;;;;;;;29.30;99.90;;;;;;5072700;28;19916;-71
2022/01/28 01:43:12;;;;;;;;;;;29.20;99.90;;;;;;5072508;28;20389;-72
2022/01/28 01:45:46;;;;;;;;;;;29.40;99.90;;;;;;5072515;28;19916;-71
2022/01/28 01:53:42;;;;;;;;;;;29.70;99.90;;;;;;5072276;28;20008;-72
2022/01/28 01:56:09;;;;;;;;;;;29.40;99.80;;;;;;5072082;28;20379;-71
2022/01/28 01:58:36;;;;;;;;;;;29.40;99.90;;;;;;5072278;28;19944;-71
2022/01/28 02:01:03;;;;;;;;;;;29.50;99.90;;;;;;5072284;28;19908;-72
2022/01/28 02:03:30;;;;;;;;;;;28.90;99.90;;;;;;5072247;28;19999;-72
2022/01/28 02:05:58;;;;;;;;;;;28.50;99.90;;;;;;5072204;28;19971;-72
2022/01/28 02:08:25;;;;;;;;;;;28.40;99.90;;;;;;5071647;28;19909;-73
2022/01/28 02:10:57;;;;;;;;;;;28.20;99.90;;;;;;5071975;28;19908;-72
2022/01/28 02:13:28;;;;;;;;;;;28.10;99.90;;;;;;5072297;28;19915;-71
2022/01/28 02:15:56;;;;;;;;;;;28.10;99.90;;;;;;5072148;28;19909;-71
2022/01/28 02:18:24;;;;;;;;;;;28.10;99.90;;;;;;5072281;28;20244;-70
2022/01/28 02:20:54;;;;;;;;;;;28.10;99.90;;;;;;5071986;28;20378;-71
2022/01/28 02:23:22;;;;;;;;;;;28.20;99.90;;;;;;5072045;28;19917;-71
2022/01/28 02:25:49;;;;;;;;;;;27.90;99.90;;;;;;5071667;28;19954;-70
2022/01/28 02:28:19;;;;;;;;;;;27.90;99.90;;;;;;5071742;28;19908;-71
2022/01/28 02:30:46;;;;;;;;;;;27.90;99.90;;;;;;5072079;28;19913;-71
2022/01/28 02:33:16;;;;;;;;;;;27.80;99.90;;;;;;5071749;28;19931;-71
2022/01/28 02:35:44;;;;;;;;;;;27.90;99.90;;;;;;5071871;28;20011;-71
2022/01/28 02:38:12;;;;;;;;;;;27.90;99.90;;;;;;5071166;28;19948;-71
2022/01/28 02:40:41;;;;;;;;;;;28.00;99.90;;;;;;5071959;28;19912;-71
2022/01/28 02:43:29;;;;;;;;;;;28.00;99.90;;;;;;5072002;28;19920;-71
2022/01/28 02:46:03;;;;;;;;;;;28.00;99.90;;;;;;5071811;28;19908;-71
2022/01/28 02:48:32;;;;;;;;;;;28.00;99.90;;;;;;5071964;28;19970;-71
2022/01/28 02:53:45;;;;;;;;;;;28.00;99.90;;;;;;5072001;28;19908;-71
2022/01/28 02:56:15;;;;;;;;;;;28.00;99.90;;;;;;5072113;28;19947;-71
2022/01/28 02:58:43;;;;;;;;;;;28.00;99.90;;;;;;5072042;28;19916;-71
2022/01/28 03:01:13;;;;;;;;;;;28.00;99.90;;;;;;5071798;28;20003;-72
2022/01/28 03:03:40;;;;;;;;;;;27.90;99.90;;;;;;5072153;28;19909;-70
2022/01/28 03:06:07;;;;;;;;;;;27.90;99.90;;;;;;5075507;28;20329;-70
2022/01/28 03:08:34;;;;;;;;;;;28.10;99.90;;;;;;5075672;28;19923;-71
2022/01/28 03:11:31;;;;;;;;;;;28.10;99.90;;;;;;5074882;28;19908;-70
2022/01/28 03:14:19;;;;;;;;;;;28.10;99.90;;;;;;5075500;28;19919;-70
2022/01/28 03:17:13;;;;;;;;;;;28.00;99.90;;;;;;5075333;28;19912;-70
2022/01/28 03:19:50;;;;;;;;;;;28.10;99.90;;;;;;5075373;28;19923;-71
2022/01/28 03:22:17;;;;;;;;;;;28.00;99.90;;;;;;5075204;28;19936;-70
2022/01/28 03:24:48;;;;;;;;;;;27.90;99.90;;;;;;5075367;28;19912;-71
2022/01/28 03:27:25;;;;;;;;;;;27.80;99.90;;;;;;5075136;28;20003;-72
2022/01/28 03:29:52;;;;;;;;;;;27.60;99.90;;;;;;5075149;28;19972;-71
2022/01/28 03:32:19;;;;;;;;;;;27.50;99.90;;;;;;5075262;28;19915;-70
2022/01/28 03:34:45;;;;;;;;;;;27.60;99.90;;;;;;5075237;28;19916;-70
2022/01/28 03:37:12;;;;;;;;;;;27.80;99.90;;;;;;5075211;28;19908;-70
2022/01/28 03:39:39;;;;;;;;;;;27.80;99.90;;;;;;5075057;28;19909;-71
2022/01/28 03:42:06;;;;;;;;;;;28.00;99.90;;;;;;5074914;28;19921;-71
2022/01/28 03:44:34;;;;;;;;;;;28.00;99.90;;;;;;5075164;28;19908;-71
2022/01/28 03:47:01;;;;;;;;;;;28.00;99.90;;;;;;5075126;28;19923;-74
2022/01/28 03:49:28;;;;;;;;;;;28.00;99.90;;;;;;5074752;28;19917;-71
2022/01/28 03:51:54;;;;;;;;;;;28.00;99.90;;;;;;5074779;28;20359;-71
2022/01/28 03:54:21;;;;;;;;;;;28.00;99.90;;;;;;5074926;28;20027;-71
2022/01/28 03:56:48;;;;;;;;;;;27.70;99.90;;;;;;5074857;28;19958;-71
2022/01/28 03:59:14;;;;;;;;;;;27.70;99.90;;;;;;5074599;28;19912;-72
2022/01/28 04:01:44;;;;;;;;;;;27.80;99.90;;;;;;5074895;28;20378;-72
2022/01/28 04:12:07;;;;;;;;;;;27.80;99.90;;;;;;5074383;28;20112;-72
2022/01/28 04:14:44;;;;;;;;;;;27.70;99.90;;;;;;5074138;28;20003;-72
2022/01/28 04:17:22;;;;;;;;;;;27.60;99.90;;;;;;5074268;28;20023;-72
2022/01/28 04:19:50;;;;;;;;;;;27.50;99.90;;;;;;5074071;28;19908;-71
2022/01/28 04:22:17;;;;;;;;;;;27.50;99.90;;;;;;5074255;28;19921;-71
2022/01/28 04:24:44;;;;;;;;;;;27.60;99.90;;;;;;5074319;28;19919;-72
2022/01/28 04:27:12;;;;;;;;;;;27.60;99.90;;;;;;5074079;28;20333;-71
2022/01/28 04:29:38;;;;;;;;;;;27.60;99.90;;;;;;5074130;28;20670;-72
2022/01/28 04:32:05;;;;;;;;;;;27.50;99.90;;;;;;5073890;28;19909;-72
2022/01/28 04:34:33;;;;;;;;;;;27.50;99.90;;;;;;5072957;28;19915;-71
2022/01/28 04:55:27;;;;;;;;;;;27.00;99.90;;;;;;5073248;28;19908;-71
2022/01/28 04:58:12;;;;;;;;;;;27.10;99.90;;;;;;5073226;28;19908;-71
2022/01/28 05:16:54;;;;;;;;;;;26.80;99.90;;;;;;5073186;28;19995;-76
2022/01/28 05:27:36;;;;;;;;;;;26.80;99.90;;;;;;5071942;28;19914;-72
2022/01/28 05:30:03;;;;;;;;;;;26.80;99.90;;;;;;5072119;28;19954;-72
2022/01/28 05:32:30;;;;;;;;;;;26.70;99.90;;;;;;5072770;28;19909;-72
2022/01/28 05:34:56;;;;;;;;;;;26.50;99.90;;;;;;5072950;28;19978;-70
2022/01/28 05:37:23;;;;;;;;;;;26.50;99.90;;;;;;5072555;28;19909;-71
2022/01/28 05:39:50;;;;;;;;;;;26.50;99.90;;;;;;5072352;28;19917;-72
2022/01/28 05:42:16;;;;;;;;;;;26.30;99.90;;;;;;5072198;28;19917;-75
2022/01/28 05:44:43;;;;;;;;;;;26.30;99.90;;;;;;5072578;28;19948;-75
2022/01/28 05:47:14;;;;;;;;;;;26.40;99.90;;;;;;5072312;28;19908;-74
2022/01/28 05:49:42;;;;;;;;;;;26.40;99.90;;;;;;5071823;28;19916;-75
2022/01/28 05:52:09;;;;;;;;;;;26.50;99.90;;;;;;5069774;28;19912;-74
2022/01/28 05:54:36;;;;;;;;;;;26.50;99.90;;;;;;5070426;28;20438;-74
2022/01/28 05:57:03;;;;;;;;;;;26.30;99.90;;;;;;5070406;28;19974;-73
2022/01/28 05:59:30;;;;;;;;;;;26.30;99.90;;;;;;5070090;28;19967;-74
2022/01/28 06:01:57;;;;;;;;;;;26.30;99.90;;;;;;5069734;28;19920;-72
2022/01/28 06:04:23;;;;;;;;;;;26.30;99.90;;;;;;5070099;28;19912;-75
2022/01/28 06:06:50;;;;;;;;;;;26.20;99.90;;;;;;5070844;28;19913;-72
2022/01/28 06:09:17;;;;;;;;;;;26.20;99.90;;;;;;5069831;28;19908;-71
2022/01/28 06:11:46;;;;;;;;;;;26.10;99.90;;;;;;5069814;28;20363;-71
2022/01/28 06:14:12;;;;;;;;;;;26.10;99.90;;;;;;5070143;28;19958;-71
2022/01/28 06:16:39;;;;;;;;;;;26.20;99.90;;;;;;5070186;28;19912;-71
2022/01/28 06:19:05;;;;;;;;;;;26.20;99.90;;;;;;5069282;28;20024;-72
2022/01/28 06:21:32;;;;;;;;;;;26.20;99.90;;;;;;5069898;28;20008;-74
2022/01/28 06:23:59;;;;;;;;;;;25.90;99.90;;;;;;5069737;28;19969;-72
2022/01/28 06:26:25;;;;;;;;;;;26.00;99.90;;;;;;5069994;28;19912;-74
2022/01/28 06:28:53;;;;;;;;;;;25.90;99.90;;;;;;5070052;28;19908;-74
2022/01/28 06:31:20;;;;;;;;;;;26.00;99.90;;;;;;5069386;28;19915;-72
2022/01/28 06:33:46;;;;;;;;;;;25.90;99.90;;;;;;5069584;28;19908;-72
2022/01/28 06:36:14;;;;;;;;;;;26.00;99.90;;;;;;5069763;28;20452;-74
2022/01/28 06:38:40;;;;;;;;;;;26.00;99.90;;;;;;5072097;28;19912;-75
2022/01/28 06:41:07;;;;;;;;;;;25.90;99.90;;;;;;5073652;28;19912;-75
2022/01/28 06:43:34;;;;;;;;;;;25.80;99.90;;;;;;5073578;28;19923;-76
2022/01/28 06:46:00;;;;;;;;;;;25.80;99.90;;;;;;5073699;28;19924;-75
2022/01/28 06:48:27;;;;;;;;;;;25.70;99.90;;;;;;5073748;28;19916;-75
2022/01/28 06:50:54;;;;;;;;;;;25.70;99.90;;;;;;5073126;28;19947;-75
2022/01/28 06:53:20;;;;;;;;;;;25.60;99.90;;;;;;5073493;28;20381;-73
2022/01/28 06:55:47;;;;;;;;;;;25.60;99.90;;;;;;5078367;28;19912;-76
2022/01/28 06:58:14;;;;;;;;;;;25.60;99.90;;;;;;5093765;28;19908;-75
2022/01/28 07:00:40;;;;;;;;;;;25.60;99.90;;;;;;5093719;28;19908;-75
2022/01/28 07:03:08;;;;;;;;;;;25.30;99.90;;;;;;5093599;28;19946;-76
2022/01/28 07:05:34;;;;;;;;;;;25.40;99.90;;;;;;5094009;28;19984;-75
2022/01/28 07:08:02;;;;;;;;;;;25.40;99.90;;;;;;5093647;28;19908;-74
2022/01/28 07:10:29;;;;;;;;;;;25.30;99.90;;;;;;5093087;28;19914;-74
2022/01/28 07:12:56;;;;;;;;;;;25.30;99.90;;;;;;5093461;28;20359;-74
2022/01/28 07:15:24;;;;;;;;;;;25.30;99.90;;;;;;5093544;28;20284;-74
2022/01/28 07:17:55;;;;;;;;;;;25.10;99.90;;;;;;5093160;28;20435;-72
2022/01/28 07:20:22;;;;;;;;;;;25.10;99.90;;;;;;5092724;28;20366;-74
2022/01/28 07:22:49;;;;;;;;;;;25.10;99.90;;;;;;5092824;28;19924;-75
2022/01/28 07:25:15;;;;;;;;;;;25.00;99.90;;;;;;5093457;28;20034;-74
2022/01/28 07:27:42;;;;;;;;;;;24.90;99.90;;;;;;5093651;28;20345;-75
2022/01/28 07:30:09;;;;;;;;;;;25.00;99.90;;;;;;5093010;28;19942;-74
2022/01/28 07:32:36;;;;;;;;;;;25.10;99.90;;;;;;5093091;28;19908;-71
2022/01/28 07:35:04;;;;;;;;;;;25.00;99.90;;;;;;5092990;28;19908;-74
2022/01/28 07:37:30;;;;;;;;;;;24.90;99.90;;;;;;5092780;28;19908;-71
2022/01/28 07:39:57;;;;;;;;;;;24.90;99.90;;;;;;5092731;28;19913;-71
2022/01/28 07:42:25;;;;;;;;;;;24.90;99.90;;;;;;5093008;28;20378;-71
2022/01/28 07:44:52;;;;;;;;;;;24.90;99.90;;;;;;5087782;28;19913;-74
2022/01/28 07:47:19;;;;;;;;;;;24.80;99.90;;;;;;5072715;28;19917;-72
2022/01/28 07:49:46;;;;;;;;;;;24.80;99.90;;;;;;5071157;28;19962;-74
2022/01/28 07:52:12;;;;;;;;;;;24.80;99.90;;;;;;5072522;28;20363;-71
2022/01/28 07:54:46;;;;;;;;;;;24.80;99.90;;;;;;5072553;28;19913;-75
2022/01/28 07:57:12;;;;;;;;;;;24.70;99.90;;;;;;5072554;28;19912;-75
2022/01/28 07:59:39;;;;;;;;;;;24.70;99.90;;;;;;5072554;28;19909;-74
2022/01/28 08:02:06;;;;;;;;;;;24.60;99.90;;;;;;5071637;28;20168;-75
2022/01/28 08:04:33;;;;;;;;;;;24.70;99.90;;;;;;5072431;28;20270;-71
2022/01/28 08:06:59;;;;;;;;;;;24.70;99.90;;;;;;5074259;28;20274;-74
2022/01/28 08:09:26;;;;;;;;;;;24.70;99.90;;;;;;5074162;28;19909;-73
2022/01/28 08:11:53;;;;;;;;;;;24.70;99.90;;;;;;5074026;28;19916;-73
2022/01/28 08:14:19;;;;;;;;;;;24.70;99.90;;;;;;5074558;28;19908;-74
2022/01/28 08:16:46;;;;;;;;;;;24.70;99.90;;;;;;5073999;28;19927;-72
2022/01/28 08:19:13;;;;;;;;;;;24.60;99.90;;;;;;5073948;28;19962;-73
2022/01/28 08:21:39;;;;;;;;;;;24.60;99.90;;;;;;5073496;28;19920;-74
2022/01/28 08:24:06;;;;;;;;;;;24.60;99.90;;;;;;5073892;28;20286;-72
2022/01/28 08:26:33;;;;;;;;;;;24.50;99.90;;;;;;5066161;28;19909;-72
2022/01/28 08:28:59;;;;;;;;;;;24.50;99.90;;;;;;5053573;28;19911;-76
2022/01/28 08:31:26;;;;;;;;;;;24.40;99.90;;;;;;5053320;28;19909;-71
2022/01/28 08:33:53;;;;;;;;;;;24.30;99.90;;;;;;5053870;28;19915;-74
2022/01/28 08:36:20;;;;;;;;;;;24.30;99.90;;;;;;5053950;28;19909;-75
2022/01/28 08:38:48;;;;;;;;;;;24.30;99.90;;;;;;5053827;28;19909;-74
2022/01/28 08:41:15;;;;;;;;;;;24.30;99.90;;;;;;5053520;28;19947;-73
2022/01/28 08:43:42;;;;;;;;;;;24.20;99.90;;;;;;5053634;28;19921;-74
2022/01/28 08:46:09;;;;;;;;;;;24.20;99.90;;;;;;5060859;28;19952;-75
2022/01/28 08:48:36;;;;;;;;;;;24.20;99.90;;;;;;5046257;28;20000;-76
2022/01/28 08:51:03;;;;;;;;;;;24.20;99.90;;;;;;5033092;28;19964;-73
2022/01/28 08:53:29;;;;;;;;;;;24.10;99.90;;;;;;5033552;28;20099;-74
2022/01/28 08:55:56;;;;;;;;;;;24.10;99.90;;;;;;5033862;28;19916;-76
2022/01/28 08:58:23;;;;;;;;;;;24.10;99.90;;;;;;5033508;28;19947;-74
2022/01/28 09:00:51;;;;;;;;;;;24.10;99.90;;;;;;5032709;28;19909;-73
2022/01/28 09:03:20;;;;;;;;;;;24.00;99.90;;;;;;5032616;28;19960;-75
2022/01/28 09:05:47;;;;;;;;;;;24.00;99.90;;;;;;5033346;28;20295;-74
2022/01/28 09:08:13;;;;;;;;;;;24.00;99.90;;;;;;5033564;28;19917;-74
2022/01/28 09:10:57;;;;;;;;;;;24.00;99.90;;;;;;5032805;28;20266;-76
2022/01/28 09:13:27;;;;;;;;;;;23.90;99.90;;;;;;5033286;28;20376;-76
2022/01/28 09:15:55;;;;;;;;;;;23.90;99.90;;;;;;5048348;28;19995;-74
2022/01/28 09:18:22;;;;;;;;;;;23.90;99.90;;;;;;5033104;28;19945;-76
2022/01/28 09:20:49;;;;;;;;;;;23.90;99.90;;;;;;5035176;28;20011;-75
2022/01/28 09:23:16;;;;;;;;;;;23.90;99.90;;;;;;5053070;28;19916;-75
2022/01/28 09:25:42;;;;;;;;;;;23.90;99.90;;;;;;5052966;28;19909;-74
2022/01/28 09:28:09;;;;;;;;;;;23.90;99.90;;;;;;5052849;28;19948;-75
2022/01/28 09:30:36;;;;;;;;;;;23.90;99.90;;;;;;5052663;28;20398;-72
2022/01/28 09:33:04;;;;;;;;;;;23.90;99.90;;;;;;5052956;28;19997;-75
2022/01/28 09:35:31;;;;;;;;;;;23.80;99.90;;;;;;5052844;28;20314;-76
2022/01/28 09:37:57;;;;;;;;;;;23.80;99.90;;;;;;5052446;28;19921;-76
2022/01/28 09:40:24;;;;;;;;;;;23.80;99.90;;;;;;5052436;28;19909;-73
2022/01/28 09:42:52;;;;;;;;;;;23.80;99.90;;;;;;5052697;28;20330;-73
2022/01/28 09:45:22;;;;;;;;;;;23.80;99.90;;;;;;5052742;28;19915;-76
2022/01/28 09:47:52;;;;;;;;;;;23.80;99.90;;;;;;5052183;28;20382;-76
2022/01/28 09:50:19;;;;;;;;;;;23.70;99.90;;;;;;5051980;28;20007;-75
2022/01/28 09:52:45;;;;;;;;;;;23.70;99.90;;;;;;5052333;28;19967;-75
2022/01/28 09:55:13;;;;;;;;;;;23.70;99.90;;;;;;5052531;28;19909;-76
2022/01/28 09:57:40;;;;;;;;;;;23.70;99.90;;;;;;5052657;28;19908;-76
2022/01/28 10:00:08;;;;;;;;;;;23.70;99.90;;;;;;5052163;28;19963;-74
2022/01/28 10:02:48;;;;;;;;;;;23.60;99.90;;;;;;5052142;28;19924;-73
2022/01/28 10:05:34;;;;;;;;;;;23.60;99.90;;;;;;5052345;28;19915;-75
2022/01/28 10:08:01;;;;;;;;;;;23.60;99.90;;;;;;5052097;28;20685;-75
2022/01/28 10:10:40;;;;;;;;;;;23.60;99.90;;;;;;5052073;28;19920;-74
2022/01/28 10:13:19;;;;;;;;;;;23.60;99.90;;;;;;5050771;28;19913;-76
2022/01/28 10:15:53;;;;;;;;;;;23.60;99.90;;;;;;5051679;28;19909;-75
2022/01/28 10:18:20;;;;;;;;;;;23.60;99.90;;;;;;5052281;28;19999;-76
2022/01/28 10:20:47;;;;;;;;;;;23.60;99.90;;;;;;5051101;28;19917;-75
2022/01/28 10:23:19;;;;;;;;;;;23.60;99.90;;;;;;5051381;28;20216;-75
2022/01/28 10:25:55;;;;;;;;;;;23.60;99.90;;;;;;5052154;28;19913;-75
2022/01/28 10:28:22;;;;;;;;;;;23.60;99.90;;;;;;5051752;28;19944;-76
2022/01/28 10:30:48;;;;;;;;;;;23.60;99.90;;;;;;5051665;28;19999;-76
2022/01/28 10:33:16;;;;;;;;;;;23.50;99.90;;;;;;5052105;28;19939;-73
2022/01/28 10:35:59;;;;;;;;;;;23.60;99.90;;;;;;5052196;28;19916;-75
2022/01/28 10:38:29;;;;;;;;;;;23.60;99.90;;;;;;5051950;28;20547;-76
2022/01/28 10:41:16;;;;;;;;;;;23.60;99.90;;;;;;5051871;28;19913;-75
2022/01/28 10:43:44;;;;;;;;;;;23.60;99.90;;;;;;5052146;28;20011;-75
2022/01/28 10:46:11;;;;;;;;;;;23.60;99.90;;;;;;5051642;28;19915;-76
2022/01/28 10:48:54;;;;;;;;;;;23.50;99.90;;;;;;5051494;28;20357;-76
2022/01/28 10:51:22;;;;;;;;;;;23.50;99.90;;;;;;5051515;28;19916;-74
2022/01/28 10:54:08;;;;;;;;;;;23.50;99.90;;;;;;5051777;28;19909;-76
2022/01/28 10:56:47;;;;;;;;;;;23.50;99.90;;;;;;5051817;28;19909;-74
2022/01/28 10:59:15;;;;;;;;;;;23.50;99.90;;;;;;5051936;28;20042;-77
2022/01/28 11:01:46;;;;;;;;;;;23.40;99.90;;;;;;5051645;28;20283;-77
2022/01/28 11:04:16;;;;;;;;;;;23.40;99.90;;;;;;5052223;28;19916;-77
2022/01/28 11:06:43;;;;;;;;;;;23.40;99.90;;;;;;5052001;28;19916;-77
2022/01/28 11:09:10;;;;;;;;;;;23.40;99.90;;;;;;5052053;28;19916;-76
2022/01/28 11:11:38;;;;;;;;;;;23.40;99.90;;;;;;5051874;28;19920;-77
2022/01/28 11:14:05;;;;;;;;;;;23.40;99.90;;;;;;5051688;28;19909;-77
2022/01/28 11:16:31;;;;;;;;;;;23.40;99.90;;;;;;5051719;28;20443;-75
2022/01/28 11:18:58;;;;;;;;;;;23.40;99.90;;;;;;5051771;28;19909;-76
2022/01/28 11:21:35;;;;;;;;;;;23.40;99.90;;;;;;5051674;28;19978;-76
2022/01/28 11:24:07;;;;;;;;;;;23.30;99.90;;;;;;5050938;28;19921;-76
2022/01/28 11:26:49;;;;;;;;;;;23.40;99.90;;;;;;5054580;28;20353;-75
2022/01/28 11:29:20;;;;;;;;;;;23.30;99.90;;;;;;5055559;28;19915;-74
2022/01/28 11:31:54;;;;;;;;;;;23.40;99.90;;;;;;5055135;28;19909;-76
2022/01/28 11:34:25;;;;;;;;;;;23.30;99.90;;;;;;5054907;28;19916;-75
2022/01/28 11:37:11;;;;;;;;;;;23.30;99.90;;;;;;5052317;28;19915;-75
2022/01/28 11:39:41;;;;;;;;;;;23.30;99.90;;;;;;5055598;28;19913;-75
2022/01/28 11:42:29;;;;;;;;;;;23.30;99.90;;;;;;5052923;28;20434;-76
2022/01/28 11:45:00;;;;;;;;;;;23.30;99.90;;;;;;5053024;28;19964;-75
2022/01/28 11:47:26;;;;;;;;;;;23.30;99.90;;;;;;5052902;28;20275;-75
2022/01/28 11:50:10;;;;;;;;;;;23.30;99.90;;;;;;5052652;28;19909;-74
2022/01/28 11:52:44;;;;;;;;;;;23.30;99.90;;;;;;5052416;28;19952;-75
2022/01/28 11:55:26;;;;;;;;;;;23.30;99.90;;;;;;5052907;28;19909;-75
2022/01/28 11:57:57;;;;;;;;;;;23.30;99.90;;;;;;5053185;28;20004;-74
2022/01/28 12:00:23;;;;;;;;;;;23.20;99.90;;;;;;5053029;28;20256;-73
2022/01/28 12:02:51;;;;;;;;;;;23.20;99.90;;;;;;5052261;28;20450;-73
2022/01/28 12:05:44;;;;;;;;;;;23.20;99.90;;;;;;5052803;28;19956;-74
2022/01/28 12:08:11;;;;;;;;;;;23.30;99.90;;;;;;5042457;28;19916;-74
2022/01/28 12:10:45;;;;;;;;;;;23.20;99.90;;;;;;5052710;28;19916;-73
2022/01/28 12:13:14;;;;;;;;;;;23.20;99.90;;;;;;5052733;28;19916;-75
2022/01/28 12:16:09;;;;;;;;;;;23.20;99.90;;;;;;5052164;28;19940;-72
2022/01/28 12:18:45;;;;;;;;;;;23.20;99.90;;;;;;5052589;28;19908;-74
2022/01/28 12:21:13;;;;;;;;;;;23.20;99.90;;;;;;5052229;28;19917;-75
2022/01/28 12:23:39;;;;;;;;;;;23.20;99.90;;;;;;5051976;28;19960;-74
2022/01/28 12:26:06;;;;;;;;;;;23.20;99.90;;;;;;5054394;28;20363;-75
2022/01/28 12:28:33;;;;;;;;;;;23.20;99.90;;;;;;5052703;28;20383;-76
2022/01/28 12:31:04;;;;;;;;;;;23.20;99.90;;;;;;5052455;28;19912;-76
2022/01/28 12:33:32;;;;;;;;;;;23.20;99.90;;;;;;5052451;28;20343;-77
2022/01/28 12:36:01;;;;;;;;;;;23.20;99.90;;;;;;5051825;28;19908;-77
2022/01/28 12:38:31;;;;;;;;;;;23.10;99.90;;;;;;5051566;28;19917;-76
2022/01/28 12:41:06;;;;;;;;;;;23.20;99.90;;;;;;5050753;28;20279;-76
2022/01/28 12:43:32;;;;;;;;;;;23.10;99.90;;;;;;5052153;28;19917;-77
2022/01/28 12:46:04;;;;;;;;;;;23.10;99.90;;;;;;5051765;28;19916;-76
2022/01/28 12:48:31;;;;;;;;;;;23.20;99.90;;;;;;5051963;28;19958;-76
2022/01/28 12:50:58;;;;;;;;;;;23.10;99.90;;;;;;5051759;28;20349;-75
2022/01/28 12:53:41;;;;;;;;;;;23.10;99.90;;;;;;5051770;28;20364;-76
2022/01/28 12:56:08;;;;;;;;;;;23.10;99.90;;;;;;5051568;28;20007;-76
2022/01/28 12:58:36;;;;;;;;;;;23.10;99.90;;;;;;5051954;28;19909;-76
2022/01/28 13:01:10;;;;;;;;;;;23.10;99.90;;;;;;5051641;28;19916;-76
2022/01/28 13:04:01;;;;;;;;;;;23.10;99.90;;;;;;5051839;28;20296;-76
2022/01/28 13:09:10;;;;;;;;;;;23.10;99.90;;;;;;5051319;28;20363;-76
2022/01/28 13:11:47;;;;;;;;;;;23.10;99.90;;;;;;5051806;28;20439;-76
2022/01/28 13:14:14;;;;;;;;;;;23.10;99.90;;;;;;5051425;28;19913;-75
2022/01/28 13:16:43;;;;;;;;;;;23.10;99.90;;;;;;5051373;28;19912;-76
2022/01/28 13:19:10;;;;;;;;;;;23.00;99.90;;;;;;5051394;28;19909;-76
2022/01/28 13:21:38;;;;;;;;;;;23.10;99.90;;;;;;5050159;28;19921;-76
2022/01/28 13:24:05;;;;;;;;;;;23.10;99.90;;;;;;5051219;28;20371;-77
2022/01/28 13:26:32;;;;;;;;;;;23.00;99.90;;;;;;5051143;28;19913;-76
2022/01/28 13:29:11;;;;;;;;;;;23.00;99.90;;;;;;5051142;28;20360;-77
2022/01/28 13:31:38;;;;;;;;;;;23.00;99.90;;;;;;5051077;28;19949;-75
2022/01/28 13:34:06;;;;;;;;;;;23.00;99.90;;;;;;5050635;28;19915;-75
2022/01/28 13:36:49;;;;;;;;;;;22.90;99.90;;;;;;5050558;28;19909;-74
2022/01/28 13:39:20;;;;;;;;;;;23.00;99.90;;;;;;5051160;28;19909;-75
2022/01/28 13:41:50;;;;;;;;;;;23.00;99.90;;;;;;5050762;28;19913;-73
2022/01/28 13:44:24;;;;;;;;;;;23.00;99.90;;;;;;5050894;28;20390;-75
2022/01/28 13:46:56;;;;;;;;;;;22.90;99.90;;;;;;5050362;28;19919;-75
2022/01/28 13:49:27;;;;;;;;;;;22.90;99.90;;;;;;5050345;28;19940;-75
2022/01/28 13:51:54;;;;;;;;;;;22.90;99.90;;;;;;5050199;28;19958;-75
2022/01/28 13:54:30;;;;;;;;;;;22.90;99.90;;;;;;5050631;28;20009;-76
2022/01/28 13:57:00;;;;;;;;;;;22.90;99.90;;;;;;5051070;28;19962;-75
2022/01/28 13:59:29;;;;;;;;;;;22.90;99.90;;;;;;5050306;28;19947;-75
2022/01/28 14:01:59;;;;;;;;;;;22.80;99.90;;;;;;5049373;28;19913;-75
2022/01/28 14:04:35;;;;;;;;;;;22.80;99.90;;;;;;5050438;28;19967;-75
2022/01/28 14:07:20;;;;;;;;;;;22.80;99.90;;;;;;5050376;28;19963;-76
2022/01/28 14:09:54;;;;;;;;;;;22.90;99.90;;;;;;5050513;28;19908;-74
2022/01/28 14:12:51;;;;;;;;;;;22.80;99.90;;;;;;5050498;28;19956;-73
2022/01/28 14:15:33;;;;;;;;;;;22.80;99.90;;;;;;5050715;28;19908;-74
2022/01/28 14:18:03;;;;;;;;;;;22.80;99.90;;;;;;5050234;28;19932;-76
2022/01/28 14:20:30;;;;;;;;;;;22.80;99.90;;;;;;5050379;28;20382;-75
2022/01/28 14:22:58;;;;;;;;;;;22.80;99.90;;;;;;5050423;28;20343;-73
2022/01/28 14:25:24;;;;;;;;;;;22.70;99.90;;;;;;5050031;28;19913;-75
2022/01/28 14:28:13;;;;;;;;;;;22.70;99.90;;;;;;5050339;28;20318;-73
2022/01/28 14:30:42;;;;;;;;;;;22.70;99.90;;;;;;5050214;28;20434;-73
2022/01/28 14:33:10;;;;;;;;;;;22.70;99.90;;;;;;5050428;28;20279;-73
2022/01/28 14:35:40;;;;;;;;;;;22.70;99.90;;;;;;5050309;28;20007;-73
2022/01/28 14:38:08;;;;;;;;;;;22.70;99.90;;;;;;5050065;28;19962;-73
2022/01/28 14:40:35;;;;;;;;;;;22.70;99.90;;;;;;5050113;28;19909;-73
2022/01/28 14:43:02;;;;;;;;;;;22.70;99.90;;;;;;5050203;28;20094;-72
2022/01/28 14:45:30;;;;;;;;;;;22.70;99.90;;;;;;5050092;28;19975;-72
2022/01/28 14:47:56;;;;;;;;;;;22.70;99.90;;;;;;5050222;28;19909;-72
2022/01/28 14:50:23;;;;;;;;;;;22.70;99.90;;;;;;5050084;28;19909;-72
2022/01/28 14:52:50;;;;;;;;;;;22.70;99.90;;;;;;5049818;28;19919;-73
2022/01/28 14:55:16;;;;;;;;;;;22.70;99.90;;;;;;5050147;28;19919;-73
2022/01/28 14:57:43;;;;;;;;;;;22.60;99.90;;;;;;5050156;28;19924;-72
2022/01/28 15:00:10;;;;;;;;;;;22.60;99.90;;;;;;5052751;28;19913;-73
2022/01/28 15:02:37;;;;;;;;;;;22.60;99.90;;;;;;5053955;28;19917;-73
2022/01/28 15:05:05;;;;;;;;;;;22.60;99.90;;;;;;5053656;28;19909;-73
2022/01/28 15:07:32;;;;;;;;;;;22.60;99.90;;;;;;5054012;28;19912;-73
2022/01/28 15:10:00;;;;;;;;;;;22.60;99.90;;;;;;5053797;28;19913;-73
2022/01/28 15:12:29;;;;;;;;;;;22.60;99.90;;;;;;5054056;28;20271;-73
2022/01/28 15:14:56;;;;;;;;;;;22.60;99.90;;;;;;5053683;28;19912;-72
2022/01/28 15:17:22;;;;;;;;;;;22.60;99.90;;;;;;5053632;28;19913;-73
2022/01/28 15:19:49;;;;;;;;;;;22.60;99.90;;;;;;5053432;28;19908;-72
2022/01/28 15:22:16;;;;;;;;;;;22.60;99.90;;;;;;5053528;28;19924;-72
2022/01/28 15:24:43;;;;;;;;;;;22.50;99.90;;;;;;5053578;28;20352;-73
2022/01/28 15:27:10;;;;;;;;;;;22.50;99.90;;;;;;5053621;28;20306;-73
2022/01/28 15:37:21;;;;;;;;;;;22.50;99.90;;;;;;5053401;28;19967;-73
2022/01/28 15:39:48;;;;;;;;;;;22.50;99.90;;;;;;5053205;28;19925;-72
2022/01/28 15:42:14;;;;;;;;;;;22.50;99.90;;;;;;5053304;28;20013;-73
2022/01/28 15:44:41;;;;;;;;;;;22.50;99.90;;;;;;5052625;28;20382;-72
2022/01/28 15:47:10;;;;;;;;;;;22.50;99.90;;;;;;5053235;28;19951;-72
2022/01/28 15:49:37;;;;;;;;;;;22.50;99.90;;;;;;5053349;28;19916;-73
2022/01/28 15:52:04;;;;;;;;;;;22.40;99.90;;;;;;5053164;28;19915;-74
2022/01/28 15:54:31;;;;;;;;;;;22.50;99.90;;;;;;5053165;28;20313;-72
2022/01/28 15:56:58;;;;;;;;;;;22.50;99.90;;;;;;5052678;28;19920;-73
2022/01/28 15:59:24;;;;;;;;;;;22.40;99.90;;;;;;5052909;28;20434;-71
2022/01/28 16:01:51;;;;;;;;;;;22.50;99.90;;;;;;5052656;28;19916;-71